sensor_id;sensor_type;location;lat;lon;timestamp;P1;durP1;ratioP1;P2;durP2;ratioP2
44838;SDS011;30576;42.098;24.876;2023-08-06T00:01:31;2.83;;;2.03;;
44838;SDS011;30576;42.098;24.876;2023-08-06T00:03:57;1.85;;;1.58;;
44838;SDS011;30576;42.098;24.876;2023-08-06T00:06:24;3.22;;;2.25;;
44838;SDS011;30576;42.098;24.876;2023-08-06T00:08:49;14.07;;;2.92;;
44838;SDS011;30576;42.098;24.876;2023-08-06T00:11:15;3.72;;;1.65;;
44838;SDS011;30576;42.098;24.876;2023-08-06T00:13:40;3.13;;;2.50;;
44838;SDS011;30576;42.098;24.876;2023-08-06T00:16:12;6.20;;;2.60;;
44838;SDS011;30576;42.098;24.876;2023-08-06T00:18:38;2.70;;;1.88;;
44838;SDS011;30576;42.098;24.876;2023-08-06T00:21:04;4.28;;;3.08;;
44838;SDS011;30576;42.098;24.876;2023-08-06T00:23:29;3.65;;;1.65;;
44838;SDS011;30576;42.098;24.876;2023-08-06T00:25:55;7.32;;;2.05;;
44838;SDS011;30576;42.098;24.876;2023-08-06T00:28:21;2.88;;;2.22;;
44838;SDS011;30576;42.098;24.876;2023-08-06T00:30:52;5.93;;;3.08;;
44838;SDS011;30576;42.098;24.876;2023-08-06T00:33:19;2.50;;;1.75;;
44838;SDS011;30576;42.098;24.876;2023-08-06T00:35:44;4.35;;;2.22;;
44838;SDS011;30576;42.098;24.876;2023-08-06T00:38:10;3.83;;;2.10;;
44838;SDS011;30576;42.098;24.876;2023-08-06T00:40:35;2.67;;;1.88;;
44838;SDS011;30576;42.098;24.876;2023-08-06T00:43:01;2.80;;;1.77;;
44838;SDS011;30576;42.098;24.876;2023-08-06T00:45:26;3.42;;;2.53;;
44838;SDS011;30576;42.098;24.876;2023-08-06T00:47:55;3.15;;;2.22;;
44838;SDS011;30576;42.098;24.876;2023-08-06T00:50:21;4.68;;;3.47;;
44838;SDS011;30576;42.098;24.876;2023-08-06T00:52:48;3.00;;;2.08;;
44838;SDS011;30576;42.098;24.876;2023-08-06T00:55:14;8.60;;;2.78;;
44838;SDS011;30576;42.098;24.876;2023-08-06T00:57:40;4.00;;;2.17;;
44838;SDS011;30576;42.098;24.876;2023-08-06T01:00:06;3.40;;;1.90;;
44838;SDS011;30576;42.098;24.876;2023-08-06T01:02:32;2.10;;;1.58;;
44838;SDS011;30576;42.098;24.876;2023-08-06T01:04:58;2.67;;;1.95;;
44838;SDS011;30576;42.098;24.876;2023-08-06T01:12:48;4.10;;;2.25;;
44838;SDS011;30576;42.098;24.876;2023-08-06T01:15:29;2.97;;;1.63;;
44838;SDS011;30576;42.098;24.876;2023-08-06T01:17:57;2.28;;;2.05;;
44838;SDS011;30576;42.098;24.876;2023-08-06T01:20:29;2.65;;;2.05;;
44838;SDS011;30576;42.098;24.876;2023-08-06T01:22:55;2.60;;;1.95;;
44838;SDS011;30576;42.098;24.876;2023-08-06T01:25:21;3.88;;;3.05;;
44838;SDS011;30576;42.098;24.876;2023-08-06T01:27:55;3.40;;;2.05;;
44838;SDS011;30576;42.098;24.876;2023-08-06T01:30:25;4.00;;;2.30;;
44838;SDS011;30576;42.098;24.876;2023-08-06T01:32:58;2.67;;;1.65;;
44838;SDS011;30576;42.098;24.876;2023-08-06T01:35:28;2.55;;;1.73;;
44838;SDS011;30576;42.098;24.876;2023-08-06T01:37:55;4.40;;;2.92;;
44838;SDS011;30576;42.098;24.876;2023-08-06T01:40:21;2.17;;;1.70;;
44838;SDS011;30576;42.098;24.876;2023-08-06T01:42:47;2.55;;;2.10;;
44838;SDS011;30576;42.098;24.876;2023-08-06T01:45:12;4.57;;;2.40;;
44838;SDS011;30576;42.098;24.876;2023-08-06T01:47:38;5.35;;;2.55;;
44838;SDS011;30576;42.098;24.876;2023-08-06T01:50:03;5.60;;;2.63;;
44838;SDS011;30576;42.098;24.876;2023-08-06T01:52:29;3.95;;;2.45;;
44838;SDS011;30576;42.098;24.876;2023-08-06T01:54:55;4.50;;;2.75;;
44838;SDS011;30576;42.098;24.876;2023-08-06T01:57:21;3.95;;;2.80;;
44838;SDS011;30576;42.098;24.876;2023-08-06T01:59:47;4.25;;;2.10;;
44838;SDS011;30576;42.098;24.876;2023-08-06T02:02:13;5.65;;;3.25;;
44838;SDS011;30576;42.098;24.876;2023-08-06T02:04:39;3.38;;;2.25;;
44838;SDS011;30576;42.098;24.876;2023-08-06T02:07:04;5.53;;;2.92;;
44838;SDS011;30576;42.098;24.876;2023-08-06T02:09:30;4.05;;;2.75;;
44838;SDS011;30576;42.098;24.876;2023-08-06T02:11:56;3.95;;;2.92;;
44838;SDS011;30576;42.098;24.876;2023-08-06T02:14:23;5.95;;;3.20;;
44838;SDS011;30576;42.098;24.876;2023-08-06T02:16:49;5.07;;;3.67;;
44838;SDS011;30576;42.098;24.876;2023-08-06T02:19:15;4.15;;;2.78;;
44838;SDS011;30576;42.098;24.876;2023-08-06T02:21:42;4.90;;;2.95;;
44838;SDS011;30576;42.098;24.876;2023-08-06T02:24:07;4.78;;;3.53;;
44838;SDS011;30576;42.098;24.876;2023-08-06T02:26:32;6.63;;;3.53;;
44838;SDS011;30576;42.098;24.876;2023-08-06T02:28:58;3.85;;;3.13;;
44838;SDS011;30576;42.098;24.876;2023-08-06T02:31:24;5.00;;;3.90;;
44838;SDS011;30576;42.098;24.876;2023-08-06T02:33:49;4.80;;;3.35;;
44838;SDS011;30576;42.098;24.876;2023-08-06T02:36:16;3.58;;;2.83;;
44838;SDS011;30576;42.098;24.876;2023-08-06T02:38:41;5.20;;;2.90;;
44838;SDS011;30576;42.098;24.876;2023-08-06T02:41:07;3.67;;;2.80;;
44838;SDS011;30576;42.098;24.876;2023-08-06T02:43:32;2.97;;;2.28;;
44838;SDS011;30576;42.098;24.876;2023-08-06T02:45:58;4.55;;;3.10;;
44838;SDS011;30576;42.098;24.876;2023-08-06T02:48:26;8.38;;;3.67;;
44838;SDS011;30576;42.098;24.876;2023-08-06T02:50:51;5.82;;;3.85;;
44838;SDS011;30576;42.098;24.876;2023-08-06T02:53:17;6.65;;;4.22;;
44838;SDS011;30576;42.098;24.876;2023-08-06T02:55:46;5.40;;;4.53;;
44838;SDS011;30576;42.098;24.876;2023-08-06T02:58:13;4.78;;;3.38;;
44838;SDS011;30576;42.098;24.876;2023-08-06T03:00:42;5.22;;;3.63;;
44838;SDS011;30576;42.098;24.876;2023-08-06T03:03:09;6.95;;;4.95;;
44838;SDS011;30576;42.098;24.876;2023-08-06T03:05:35;8.05;;;4.43;;
44838;SDS011;30576;42.098;24.876;2023-08-06T03:08:00;7.18;;;5.43;;
44838;SDS011;30576;42.098;24.876;2023-08-06T03:10:26;6.57;;;4.05;;
44838;SDS011;30576;42.098;24.876;2023-08-06T03:12:52;6.47;;;4.38;;
44838;SDS011;30576;42.098;24.876;2023-08-06T03:15:19;9.68;;;5.03;;
44838;SDS011;30576;42.098;24.876;2023-08-06T03:17:44;4.75;;;3.78;;
44838;SDS011;30576;42.098;24.876;2023-08-06T03:20:10;7.00;;;5.07;;
44838;SDS011;30576;42.098;24.876;2023-08-06T03:22:35;7.75;;;3.65;;
44838;SDS011;30576;42.098;24.876;2023-08-06T03:25:01;5.18;;;3.80;;
44838;SDS011;30576;42.098;24.876;2023-08-06T03:27:27;6.25;;;5.40;;
44838;SDS011;30576;42.098;24.876;2023-08-06T03:29:52;6.45;;;4.10;;
44838;SDS011;30576;42.098;24.876;2023-08-06T03:32:18;6.30;;;3.60;;
44838;SDS011;30576;42.098;24.876;2023-08-06T03:34:43;6.05;;;4.55;;
44838;SDS011;30576;42.098;24.876;2023-08-06T03:37:09;6.90;;;4.88;;
44838;SDS011;30576;42.098;24.876;2023-08-06T03:39:34;12.50;;;5.90;;
44838;SDS011;30576;42.098;24.876;2023-08-06T03:42:00;6.25;;;3.90;;
44838;SDS011;30576;42.098;24.876;2023-08-06T03:44:26;9.55;;;5.68;;
44838;SDS011;30576;42.098;24.876;2023-08-06T03:46:53;6.97;;;4.72;;
44838;SDS011;30576;42.098;24.876;2023-08-06T03:49:18;7.03;;;4.43;;
44838;SDS011;30576;42.098;24.876;2023-08-06T03:51:44;7.90;;;4.95;;
44838;SDS011;30576;42.098;24.876;2023-08-06T03:54:09;7.50;;;5.18;;
44838;SDS011;30576;42.098;24.876;2023-08-06T03:56:35;6.00;;;4.82;;
44838;SDS011;30576;42.098;24.876;2023-08-06T03:59:00;9.63;;;5.20;;
44838;SDS011;30576;42.098;24.876;2023-08-06T04:01:26;7.38;;;4.63;;
44838;SDS011;30576;42.098;24.876;2023-08-06T04:03:51;5.60;;;4.10;;
44838;SDS011;30576;42.098;24.876;2023-08-06T04:06:17;6.00;;;4.05;;
44838;SDS011;30576;42.098;24.876;2023-08-06T04:08:42;7.18;;;4.00;;
44838;SDS011;30576;42.098;24.876;2023-08-06T04:11:08;10.05;;;4.30;;
44838;SDS011;30576;42.098;24.876;2023-08-06T04:13:34;6.45;;;4.32;;
44838;SDS011;30576;42.098;24.876;2023-08-06T04:16:03;6.82;;;4.18;;
44838;SDS011;30576;42.098;24.876;2023-08-06T04:18:29;7.65;;;3.80;;
44838;SDS011;30576;42.098;24.876;2023-08-06T04:20:54;5.90;;;3.72;;
44838;SDS011;30576;42.098;24.876;2023-08-06T04:23:22;9.80;;;4.88;;
44838;SDS011;30576;42.098;24.876;2023-08-06T04:25:47;6.88;;;5.00;;
44838;SDS011;30576;42.098;24.876;2023-08-06T04:28:13;8.93;;;5.63;;
44838;SDS011;30576;42.098;24.876;2023-08-06T04:30:38;6.28;;;4.22;;
44838;SDS011;30576;42.098;24.876;2023-08-06T04:33:04;8.13;;;5.53;;
44838;SDS011;30576;42.098;24.876;2023-08-06T04:35:30;8.60;;;5.53;;
44838;SDS011;30576;42.098;24.876;2023-08-06T04:37:55;10.43;;;5.63;;
44838;SDS011;30576;42.098;24.876;2023-08-06T04:40:21;11.15;;;6.03;;
44838;SDS011;30576;42.098;24.876;2023-08-06T04:42:46;13.02;;;4.78;;
44838;SDS011;30576;42.098;24.876;2023-08-06T04:45:12;8.50;;;6.18;;
44838;SDS011;30576;42.098;24.876;2023-08-06T04:47:37;10.50;;;5.88;;
44838;SDS011;30576;42.098;24.876;2023-08-06T04:50:03;10.48;;;5.45;;
44838;SDS011;30576;42.098;24.876;2023-08-06T04:52:29;10.00;;;6.47;;
44838;SDS011;30576;42.098;24.876;2023-08-06T04:54:56;12.25;;;7.25;;
44838;SDS011;30576;42.098;24.876;2023-08-06T04:57:22;9.63;;;7.30;;
44838;SDS011;30576;42.098;24.876;2023-08-06T04:59:50;9.32;;;5.75;;
44838;SDS011;30576;42.098;24.876;2023-08-06T05:02:15;6.43;;;4.82;;
44838;SDS011;30576;42.098;24.876;2023-08-06T05:04:41;15.55;;;7.00;;
44838;SDS011;30576;42.098;24.876;2023-08-06T05:07:06;14.55;;;7.47;;
44838;SDS011;30576;42.098;24.876;2023-08-06T05:09:32;8.77;;;7.15;;
44838;SDS011;30576;42.098;24.876;2023-08-06T05:12:00;9.43;;;6.15;;
44838;SDS011;30576;42.098;24.876;2023-08-06T05:14:26;6.70;;;5.20;;
44838;SDS011;30576;42.098;24.876;2023-08-06T05:16:54;8.20;;;6.30;;
44838;SDS011;30576;42.098;24.876;2023-08-06T05:19:19;10.30;;;7.32;;
44838;SDS011;30576;42.098;24.876;2023-08-06T05:21:45;7.38;;;5.28;;
44838;SDS011;30576;42.098;24.876;2023-08-06T05:24:10;8.02;;;5.45;;
44838;SDS011;30576;42.098;24.876;2023-08-06T05:26:37;10.02;;;6.07;;
44838;SDS011;30576;42.098;24.876;2023-08-06T05:29:03;7.07;;;4.90;;
44838;SDS011;30576;42.098;24.876;2023-08-06T05:31:29;8.95;;;5.88;;
44838;SDS011;30576;42.098;24.876;2023-08-06T05:33:55;12.43;;;6.07;;
44838;SDS011;30576;42.098;24.876;2023-08-06T05:36:21;10.43;;;6.55;;
44838;SDS011;30576;42.098;24.876;2023-08-06T05:38:47;8.65;;;5.25;;
44838;SDS011;30576;42.098;24.876;2023-08-06T05:41:12;9.52;;;5.28;;
44838;SDS011;30576;42.098;24.876;2023-08-06T05:43:39;9.65;;;7.25;;
44838;SDS011;30576;42.098;24.876;2023-08-06T05:46:04;7.47;;;6.07;;
44838;SDS011;30576;42.098;24.876;2023-08-06T05:48:30;8.18;;;5.60;;
44838;SDS011;30576;42.098;24.876;2023-08-06T05:50:56;11.18;;;6.55;;
44838;SDS011;30576;42.098;24.876;2023-08-06T05:53:22;10.38;;;6.82;;
44838;SDS011;30576;42.098;24.876;2023-08-06T05:55:48;8.90;;;7.47;;
44838;SDS011;30576;42.098;24.876;2023-08-06T05:58:13;9.30;;;5.85;;
44838;SDS011;30576;42.098;24.876;2023-08-06T06:00:39;13.43;;;7.95;;
44838;SDS011;30576;42.098;24.876;2023-08-06T06:03:04;11.18;;;7.70;;
44838;SDS011;30576;42.098;24.876;2023-08-06T06:05:30;10.05;;;6.97;;
44838;SDS011;30576;42.098;24.876;2023-08-06T06:07:55;8.88;;;5.38;;
44838;SDS011;30576;42.098;24.876;2023-08-06T06:10:21;8.88;;;5.55;;
44838;SDS011;30576;42.098;24.876;2023-08-06T06:12:47;8.85;;;4.82;;
44838;SDS011;30576;42.098;24.876;2023-08-06T06:15:13;6.60;;;4.57;;
44838;SDS011;30576;42.098;24.876;2023-08-06T06:17:38;6.63;;;3.65;;
44838;SDS011;30576;42.098;24.876;2023-08-06T06:20:04;3.45;;;3.13;;
44838;SDS011;30576;42.098;24.876;2023-08-06T06:22:30;3.47;;;2.67;;
44838;SDS011;30576;42.098;24.876;2023-08-06T06:24:56;3.83;;;2.60;;
44838;SDS011;30576;42.098;24.876;2023-08-06T06:27:21;5.75;;;2.33;;
44838;SDS011;30576;42.098;24.876;2023-08-06T06:29:47;5.72;;;2.42;;
44838;SDS011;30576;42.098;24.876;2023-08-06T06:32:12;3.47;;;2.13;;
44838;SDS011;30576;42.098;24.876;2023-08-06T06:34:38;3.88;;;3.28;;
44838;SDS011;30576;42.098;24.876;2023-08-06T06:37:03;4.53;;;2.20;;
44838;SDS011;30576;42.098;24.876;2023-08-06T06:39:29;4.43;;;2.92;;
44838;SDS011;30576;42.098;24.876;2023-08-06T06:41:55;3.80;;;2.42;;
44838;SDS011;30576;42.098;24.876;2023-08-06T06:44:21;5.85;;;3.17;;
44838;SDS011;30576;42.098;24.876;2023-08-06T06:46:46;11.18;;;3.08;;
44838;SDS011;30576;42.098;24.876;2023-08-06T06:49:12;3.40;;;2.58;;
44838;SDS011;30576;42.098;24.876;2023-08-06T06:51:37;2.45;;;1.60;;
44838;SDS011;30576;42.098;24.876;2023-08-06T06:54:03;3.17;;;1.55;;
44838;SDS011;30576;42.098;24.876;2023-08-06T06:56:28;3.92;;;2.03;;
44838;SDS011;30576;42.098;24.876;2023-08-06T06:58:55;3.83;;;2.60;;
44838;SDS011;30576;42.098;24.876;2023-08-06T07:01:20;2.53;;;1.88;;
44838;SDS011;30576;42.098;24.876;2023-08-06T07:07:07;2.80;;;2.42;;
44838;SDS011;30576;42.098;24.876;2023-08-06T07:09:33;4.03;;;2.20;;
44838;SDS011;30576;42.098;24.876;2023-08-06T07:11:58;3.03;;;2.08;;
44838;SDS011;30576;42.098;24.876;2023-08-06T07:14:28;2.88;;;1.98;;
44838;SDS011;30576;42.098;24.876;2023-08-06T07:16:53;2.13;;;1.50;;
44838;SDS011;30576;42.098;24.876;2023-08-06T07:19:19;4.97;;;2.97;;
44838;SDS011;30576;42.098;24.876;2023-08-06T07:21:45;3.22;;;2.03;;
44838;SDS011;30576;42.098;24.876;2023-08-06T07:24:10;3.05;;;2.10;;
44838;SDS011;30576;42.098;24.876;2023-08-06T07:26:36;2.70;;;1.92;;
44838;SDS011;30576;42.098;24.876;2023-08-06T07:29:02;5.03;;;2.80;;
44838;SDS011;30576;42.098;24.876;2023-08-06T07:31:28;2.88;;;1.95;;
44838;SDS011;30576;42.098;24.876;2023-08-06T07:33:53;4.43;;;2.70;;
44838;SDS011;30576;42.098;24.876;2023-08-06T07:36:19;3.13;;;2.45;;
44838;SDS011;30576;42.098;24.876;2023-08-06T07:38:44;3.55;;;3.22;;
44838;SDS011;30576;42.098;24.876;2023-08-06T07:41:10;3.90;;;2.35;;
44838;SDS011;30576;42.098;24.876;2023-08-06T07:43:35;4.32;;;2.85;;
44838;SDS011;30576;42.098;24.876;2023-08-06T07:53:46;9.77;;;3.45;;
44838;SDS011;30576;42.098;24.876;2023-08-06T07:56:12;16.17;;;4.38;;
44838;SDS011;30576;42.098;24.876;2023-08-06T07:58:37;5.03;;;2.80;;
44838;SDS011;30576;42.098;24.876;2023-08-06T08:01:03;3.60;;;2.45;;
44838;SDS011;30576;42.098;24.876;2023-08-06T08:03:28;4.68;;;2.45;;
44838;SDS011;30576;42.098;24.876;2023-08-06T08:05:54;5.13;;;3.05;;
44838;SDS011;30576;42.098;24.876;2023-08-06T08:08:24;4.47;;;2.42;;
44838;SDS011;30576;42.098;24.876;2023-08-06T08:10:49;4.45;;;3.67;;
44838;SDS011;30576;42.098;24.876;2023-08-06T08:13:15;6.18;;;4.60;;
44838;SDS011;30576;42.098;24.876;2023-08-06T08:15:40;4.30;;;2.42;;
44838;SDS011;30576;42.098;24.876;2023-08-06T08:18:06;3.72;;;2.42;;
44838;SDS011;30576;42.098;24.876;2023-08-06T08:20:31;3.25;;;2.67;;
44838;SDS011;30576;42.098;24.876;2023-08-06T08:22:58;5.05;;;3.22;;
44838;SDS011;30576;42.098;24.876;2023-08-06T08:25:25;7.25;;;3.65;;
44838;SDS011;30576;42.098;24.876;2023-08-06T08:27:51;12.88;;;3.42;;
44838;SDS011;30576;42.098;24.876;2023-08-06T08:30:17;4.25;;;2.47;;
44838;SDS011;30576;42.098;24.876;2023-08-06T08:32:49;4.88;;;2.70;;
44838;SDS011;30576;42.098;24.876;2023-08-06T08:35:14;4.47;;;3.30;;
44838;SDS011;30576;42.098;24.876;2023-08-06T08:40:46;6.70;;;2.25;;
44838;SDS011;30576;42.098;24.876;2023-08-06T08:43:16;5.82;;;4.70;;
44838;SDS011;30576;42.098;24.876;2023-08-06T08:45:45;3.63;;;2.35;;
44838;SDS011;30576;42.098;24.876;2023-08-06T08:48:15;5.22;;;3.50;;
44838;SDS011;30576;42.098;24.876;2023-08-06T08:50:44;4.75;;;1.73;;
44838;SDS011;30576;42.098;24.876;2023-08-06T08:53:13;5.03;;;3.15;;
44838;SDS011;30576;42.098;24.876;2023-08-06T08:55:40;6.63;;;3.53;;
44838;SDS011;30576;42.098;24.876;2023-08-06T08:58:07;3.00;;;2.20;;
44838;SDS011;30576;42.098;24.876;2023-08-06T09:00:32;5.25;;;2.78;;
44838;SDS011;30576;42.098;24.876;2023-08-06T09:03:00;3.55;;;2.15;;
44838;SDS011;30576;42.098;24.876;2023-08-06T09:05:28;3.97;;;1.52;;
44838;SDS011;30576;42.098;24.876;2023-08-06T09:08:04;2.75;;;2.17;;
44838;SDS011;30576;42.098;24.876;2023-08-06T09:10:30;6.25;;;3.00;;
44838;SDS011;30576;42.098;24.876;2023-08-06T09:12:56;5.57;;;1.58;;
44838;SDS011;30576;42.098;24.876;2023-08-06T09:15:26;2.42;;;1.55;;
44838;SDS011;30576;42.098;24.876;2023-08-06T09:17:53;3.35;;;2.35;;
44838;SDS011;30576;42.098;24.876;2023-08-06T09:20:19;6.20;;;2.50;;
44838;SDS011;30576;42.098;24.876;2023-08-06T09:22:44;2.17;;;1.50;;
44838;SDS011;30576;42.098;24.876;2023-08-06T09:25:10;4.53;;;2.83;;
44838;SDS011;30576;42.098;24.876;2023-08-06T09:27:38;3.60;;;2.33;;
44838;SDS011;30576;42.098;24.876;2023-08-06T09:30:06;2.30;;;1.52;;
44838;SDS011;30576;42.098;24.876;2023-08-06T09:32:44;3.83;;;2.33;;
44838;SDS011;30576;42.098;24.876;2023-08-06T09:35:14;6.00;;;2.67;;
44838;SDS011;30576;42.098;24.876;2023-08-06T09:37:41;3.58;;;2.60;;
44838;SDS011;30576;42.098;24.876;2023-08-06T09:42:53;4.20;;;3.05;;
44838;SDS011;30576;42.098;24.876;2023-08-06T09:45:22;4.82;;;3.08;;
44838;SDS011;30576;42.098;24.876;2023-08-06T09:47:58;5.13;;;2.25;;
44838;SDS011;30576;42.098;24.876;2023-08-06T09:50:28;3.53;;;2.42;;
44838;SDS011;30576;42.098;24.876;2023-08-06T09:52:59;4.05;;;2.17;;
44838;SDS011;30576;42.098;24.876;2023-08-06T09:55:25;4.80;;;2.72;;
44838;SDS011;30576;42.098;24.876;2023-08-06T09:57:51;4.10;;;2.35;;
44838;SDS011;30576;42.098;24.876;2023-08-06T10:00:18;5.53;;;2.83;;
44838;SDS011;30576;42.098;24.876;2023-08-06T10:02:44;3.65;;;1.95;;
44838;SDS011;30576;42.098;24.876;2023-08-06T10:05:10;5.07;;;2.78;;
44838;SDS011;30576;42.098;24.876;2023-08-06T10:07:36;2.35;;;1.60;;
44838;SDS011;30576;42.098;24.876;2023-08-06T10:10:05;1.63;;;1.15;;
44838;SDS011;30576;42.098;24.876;2023-08-06T10:12:34;1.60;;;1.08;;
44838;SDS011;30576;42.098;24.876;2023-08-06T10:15:03;1.42;;;0.98;;
44838;SDS011;30576;42.098;24.876;2023-08-06T10:17:33;1.38;;;1.00;;
44838;SDS011;30576;42.098;24.876;2023-08-06T10:20:00;1.75;;;1.50;;
44838;SDS011;30576;42.098;24.876;2023-08-06T10:22:26;3.92;;;2.30;;
44838;SDS011;30576;42.098;24.876;2023-08-06T10:24:53;2.97;;;1.90;;
44838;SDS011;30576;42.098;24.876;2023-08-06T10:27:21;5.72;;;2.53;;
44838;SDS011;30576;42.098;24.876;2023-08-06T10:29:54;6.85;;;2.10;;
44838;SDS011;30576;42.098;24.876;2023-08-06T10:32:19;3.63;;;1.60;;
44838;SDS011;30576;42.098;24.876;2023-08-06T10:34:56;4.03;;;2.47;;
44838;SDS011;30576;42.098;24.876;2023-08-06T10:37:23;2.13;;;1.75;;
44838;SDS011;30576;42.098;24.876;2023-08-06T10:39:51;2.97;;;1.85;;
44838;SDS011;30576;42.098;24.876;2023-08-06T10:42:21;5.05;;;2.25;;
44838;SDS011;30576;42.098;24.876;2023-08-06T10:47:43;2.85;;;1.98;;
44838;SDS011;30576;42.098;24.876;2023-08-06T10:50:13;4.22;;;2.90;;
44838;SDS011;30576;42.098;24.876;2023-08-06T10:52:41;3.42;;;2.25;;
44838;SDS011;30576;42.098;24.876;2023-08-06T10:55:08;3.65;;;2.33;;
44838;SDS011;30576;42.098;24.876;2023-08-06T10:57:34;4.32;;;2.40;;
44838;SDS011;30576;42.098;24.876;2023-08-06T11:00:00;2.75;;;1.65;;
44838;SDS011;30576;42.098;24.876;2023-08-06T11:02:25;3.75;;;2.22;;
44838;SDS011;30576;42.098;24.876;2023-08-06T11:04:51;2.97;;;1.48;;
44838;SDS011;30576;42.098;24.876;2023-08-06T11:07:17;3.55;;;1.85;;
44838;SDS011;30576;42.098;24.876;2023-08-06T11:09:42;1.65;;;1.48;;
44838;SDS011;30576;42.098;24.876;2023-08-06T11:12:11;3.20;;;2.08;;
44838;SDS011;30576;42.098;24.876;2023-08-06T11:14:37;3.80;;;2.00;;
44838;SDS011;30576;42.098;24.876;2023-08-06T11:17:04;1.83;;;1.48;;
44838;SDS011;30576;42.098;24.876;2023-08-06T11:19:30;2.40;;;1.40;;
44838;SDS011;30576;42.098;24.876;2023-08-06T11:21:56;2.58;;;1.88;;
44838;SDS011;30576;42.098;24.876;2023-08-06T11:24:23;2.58;;;1.10;;
44838;SDS011;30576;42.098;24.876;2023-08-06T11:26:49;3.65;;;2.05;;
44838;SDS011;30576;42.098;24.876;2023-08-06T11:29:15;2.22;;;1.20;;
44838;SDS011;30576;42.098;24.876;2023-08-06T11:31:41;4.47;;;2.40;;
44838;SDS011;30576;42.098;24.876;2023-08-06T11:34:06;2.85;;;1.88;;
44838;SDS011;30576;42.098;24.876;2023-08-06T11:36:32;2.78;;;1.75;;
44838;SDS011;30576;42.098;24.876;2023-08-06T11:39:00;3.00;;;1.10;;
44838;SDS011;30576;42.098;24.876;2023-08-06T11:41:28;2.00;;;1.15;;
44838;SDS011;30576;42.098;24.876;2023-08-06T11:43:54;1.73;;;1.10;;
44838;SDS011;30576;42.098;24.876;2023-08-06T11:46:19;2.13;;;1.50;;
44838;SDS011;30576;42.098;24.876;2023-08-06T11:48:57;2.22;;;1.20;;
44838;SDS011;30576;42.098;24.876;2023-08-06T11:51:26;1.67;;;1.20;;
44838;SDS011;30576;42.098;24.876;2023-08-06T11:53:56;1.52;;;1.00;;
44838;SDS011;30576;42.098;24.876;2023-08-06T11:56:22;2.38;;;1.30;;
44838;SDS011;30576;42.098;24.876;2023-08-06T11:58:49;2.70;;;1.15;;
44838;SDS011;30576;42.098;24.876;2023-08-06T12:01:14;3.88;;;1.92;;
44838;SDS011;30576;42.098;24.876;2023-08-06T12:03:40;2.85;;;1.30;;
44838;SDS011;30576;42.098;24.876;2023-08-06T12:06:06;5.95;;;1.23;;
44838;SDS011;30576;42.098;24.876;2023-08-06T12:08:32;4.18;;;0.90;;
44838;SDS011;30576;42.098;24.876;2023-08-06T12:10:58;2.70;;;1.35;;
44838;SDS011;30576;42.098;24.876;2023-08-06T12:13:23;1.25;;;0.93;;
44838;SDS011;30576;42.098;24.876;2023-08-06T12:15:49;1.15;;;1.05;;
44838;SDS011;30576;42.098;24.876;2023-08-06T12:18:17;1.58;;;1.30;;
44838;SDS011;30576;42.098;24.876;2023-08-06T12:20:43;3.42;;;1.27;;
44838;SDS011;30576;42.098;24.876;2023-08-06T12:23:08;1.17;;;1.02;;
44838;SDS011;30576;42.098;24.876;2023-08-06T12:25:35;1.58;;;1.27;;
44838;SDS011;30576;42.098;24.876;2023-08-06T12:28:00;2.58;;;1.40;;
44838;SDS011;30576;42.098;24.876;2023-08-06T12:30:26;1.40;;;1.00;;
44838;SDS011;30576;42.098;24.876;2023-08-06T12:32:51;1.30;;;0.93;;
44838;SDS011;30576;42.098;24.876;2023-08-06T12:35:17;2.28;;;1.17;;
44838;SDS011;30576;42.098;24.876;2023-08-06T12:37:42;1.13;;;0.75;;
44838;SDS011;30576;42.098;24.876;2023-08-06T12:40:09;3.50;;;1.00;;
44838;SDS011;30576;42.098;24.876;2023-08-06T12:42:35;1.27;;;0.93;;
44838;SDS011;30576;42.098;24.876;2023-08-06T12:45:00;0.43;;;0.43;;
44838;SDS011;30576;42.098;24.876;2023-08-06T12:47:26;1.33;;;0.57;;
44838;SDS011;30576;42.098;24.876;2023-08-06T12:49:51;1.23;;;0.63;;
44838;SDS011;30576;42.098;24.876;2023-08-06T12:52:17;0.90;;;0.52;;
44838;SDS011;30576;42.098;24.876;2023-08-06T12:54:44;0.88;;;0.60;;
44838;SDS011;30576;42.098;24.876;2023-08-06T12:57:11;0.82;;;0.50;;
44838;SDS011;30576;42.098;24.876;2023-08-06T12:59:37;1.30;;;0.85;;
44838;SDS011;30576;42.098;24.876;2023-08-06T13:02:02;1.05;;;0.70;;
44838;SDS011;30576;42.098;24.876;2023-08-06T13:04:28;2.20;;;1.05;;
44838;SDS011;30576;42.098;24.876;2023-08-06T13:06:54;2.38;;;0.50;;
44838;SDS011;30576;42.098;24.876;2023-08-06T13:09:20;2.17;;;0.95;;
44838;SDS011;30576;42.098;24.876;2023-08-06T13:11:45;3.33;;;0.80;;
44838;SDS011;30576;42.098;24.876;2023-08-06T13:14:15;1.45;;;1.20;;
44838;SDS011;30576;42.098;24.876;2023-08-06T13:16:41;1.88;;;1.35;;
44838;SDS011;30576;42.098;24.876;2023-08-06T13:19:08;0.95;;;0.50;;
44838;SDS011;30576;42.098;24.876;2023-08-06T13:24:06;0.88;;;0.65;;
44838;SDS011;30576;42.098;24.876;2023-08-06T13:26:32;1.42;;;1.23;;
44838;SDS011;30576;42.098;24.876;2023-08-06T13:28:59;1.33;;;0.90;;
44838;SDS011;30576;42.098;24.876;2023-08-06T13:31:25;1.65;;;1.02;;
44838;SDS011;30576;42.098;24.876;2023-08-06T13:33:52;0.80;;;0.80;;
44838;SDS011;30576;42.098;24.876;2023-08-06T13:36:20;2.90;;;1.13;;
44838;SDS011;30576;42.098;24.876;2023-08-06T13:38:46;1.42;;;0.88;;
44838;SDS011;30576;42.098;24.876;2023-08-06T13:41:12;0.60;;;0.40;;
44838;SDS011;30576;42.098;24.876;2023-08-06T13:43:38;0.55;;;0.50;;
44838;SDS011;30576;42.098;24.876;2023-08-06T13:46:04;1.20;;;0.82;;
44838;SDS011;30576;42.098;24.876;2023-08-06T13:48:29;0.82;;;0.57;;
44838;SDS011;30576;42.098;24.876;2023-08-06T13:50:54;0.80;;;0.55;;
44838;SDS011;30576;42.098;24.876;2023-08-06T13:53:20;0.68;;;0.47;;
44838;SDS011;30576;42.098;24.876;2023-08-06T13:55:45;1.35;;;1.20;;
44838;SDS011;30576;42.098;24.876;2023-08-06T13:58:11;1.00;;;0.90;;
44838;SDS011;30576;42.098;24.876;2023-08-06T14:00:36;1.23;;;0.88;;
44838;SDS011;30576;42.098;24.876;2023-08-06T14:03:02;0.50;;;0.30;;
44838;SDS011;30576;42.098;24.876;2023-08-06T14:05:28;1.10;;;0.55;;
44838;SDS011;30576;42.098;24.876;2023-08-06T14:07:53;0.63;;;0.52;;
44838;SDS011;30576;42.098;24.876;2023-08-06T14:10:19;1.42;;;0.75;;
44838;SDS011;30576;42.098;24.876;2023-08-06T14:12:46;0.98;;;0.80;;
44838;SDS011;30576;42.098;24.876;2023-08-06T14:15:11;1.48;;;0.93;;
44838;SDS011;30576;42.098;24.876;2023-08-06T14:17:37;5.15;;;1.30;;
44838;SDS011;30576;42.098;24.876;2023-08-06T14:20:03;1.15;;;0.40;;
44838;SDS011;30576;42.098;24.876;2023-08-06T14:22:30;0.47;;;0.40;;
44838;SDS011;30576;42.098;24.876;2023-08-06T14:24:58;1.67;;;0.57;;
44838;SDS011;30576;42.098;24.876;2023-08-06T14:27:24;0.45;;;0.45;;
44838;SDS011;30576;42.098;24.876;2023-08-06T14:29:50;1.45;;;0.70;;
44838;SDS011;30576;42.098;24.876;2023-08-06T14:32:15;0.43;;;0.30;;
44838;SDS011;30576;42.098;24.876;2023-08-06T14:34:43;0.52;;;0.35;;
44838;SDS011;30576;42.098;24.876;2023-08-06T14:37:09;1.50;;;0.60;;
44838;SDS011;30576;42.098;24.876;2023-08-06T14:39:34;1.75;;;0.60;;
44838;SDS011;30576;42.098;24.876;2023-08-06T14:42:00;0.28;;;0.28;;
44838;SDS011;30576;42.098;24.876;2023-08-06T14:44:25;0.50;;;0.50;;
44838;SDS011;30576;42.098;24.876;2023-08-06T14:46:51;1.38;;;0.80;;
44838;SDS011;30576;42.098;24.876;2023-08-06T14:49:18;1.38;;;0.73;;
44838;SDS011;30576;42.098;24.876;2023-08-06T14:51:43;1.27;;;0.60;;
44838;SDS011;30576;42.098;24.876;2023-08-06T14:54:08;0.93;;;0.52;;
44838;SDS011;30576;42.098;24.876;2023-08-06T14:56:34;0.70;;;0.63;;